ADDS TAF Board (Experimental) INFO Settings
IDs: Format: Expanded Condensed

KCLT - Charlotte/Douglas In, NC, US

Issued at 1120 UTC 25 Aug 2016
Updated at 1455 UTC 25 Aug 2016
Time1452Z 25/15Z 25/16Z 25/17Z 25/18Z 25/19Z 25/20Z 25/21Z 25/22Z 25/23Z 26/00Z 26/01Z 26/02Z 26/03Z
Type OBS PRVL PRVL PRVL PRVL PRVL PRVL PRVL PRVL PRVL PRVL PRVL PRVL PRVL
VIS 10 >6 >6 >6 >6 >6 >6 >6 >6 >6 >6 >6 >6 >6
CIG -- 250 250 250 250 250 250 250 250 250 250 250 250 250
Cover FEW BKN BKN BKN BKN BKN BKN BKN BKN BKN BKN BKN BKN BKN
FltCat VFR VFR VFR VFR VFR VFR VFR VFR VFR VFR VFR VFR VFR VFR
WX -- -- -- -- -- -- -- -- -- -- -- -- -- --
WDir 220 180 180 180 230 230 230 230 230 230 230 230 230 230
WSpd 3 4 4 4 4 4 4 4 4 4 4 4 4 4
WGst -- -- -- -- -- -- -- -- -- -- -- -- -- --
R05/23
XWnd -0 -3 -3 -3 0 0 0 0 0 0 0 0 0 0
HWnd -3 -3 -3 -3 -4 -4 -4 -4 -4 -4 -4 -4 -4 -4
R18/36
XWnd -2 -0 -0 -0 -3 -3 -3 -3 -3 -3 -3 -3 -3 -3
HWnd 2 4 4 4 2 2 2 2 2 2 2 2 2 2

Raw TAF
KCLT 251120Z 2512/2612 18004KT P6SM FEW045 BKN250
  FM251800 23004KT P6SM SCT050 BKN250


Raw METAR
KCLT 251452Z 22003KT 10SM FEW250 29/18 A3021 RMK AO2 SLP218 T02940183 53001
KCLT 251352Z 26005KT 10SM FEW250 27/19 A3020 RMK AO2 SLP215 T02720189
KCLT 251252Z 19005KT 10SM FEW250 25/18 A3020 RMK AO2 SLP216 T02500183
KCLT 251152Z 19003KT 10SM FEW250 23/17 A3020 RMK AO2 SLP219 T02280172 10256 20211 53005

METAR Board
Radar Display
Forecast Discussion

TAF Board Legend

Potential Impact
Threat None Slight Moderate High
Visibility (sm) ≥5.1 5.1>X≥3 3>X≥1 <1
Ceiling (100 ft) ≥30.1 30.1>X≥10 10>X≥5 <5
Wind Speed (kt) <10 10≤X<20 20≤X<30 ≥30
Wind Gust (kt) <15 15≤X<25 25≤X<35 ≥35
Weather No Wx Reported VCTS,-TS,-FZRA,SN TS,FZRA +TS,+FZRA,+SN